createdAt,value
2022-11-27T00:00:21.268Z,3.69
2022-11-27T00:03:20.347Z,3.66
2022-11-27T00:06:06.468Z,3.50
2022-11-27T00:08:51.380Z,3.57
2022-11-27T00:11:35.278Z,3.52
2022-11-27T00:14:19.514Z,3.55
2022-11-27T00:17:03.372Z,3.63
2022-11-27T00:19:38.850Z,3.68
2022-11-27T00:22:15.327Z,3.73
2022-11-27T00:24:58.284Z,3.81
2022-11-27T00:27:42.711Z,3.80
2022-11-27T00:30:29.924Z,3.77
2022-11-27T00:33:14.672Z,3.80
2022-11-27T00:35:56.889Z,3.87
2022-11-27T00:38:39.448Z,3.79
2022-11-27T00:41:19.972Z,3.76
2022-11-27T00:44:00.410Z,3.71
2022-11-27T00:46:44.228Z,3.67
2022-11-27T00:49:26.533Z,3.67
2022-11-27T00:52:07.533Z,3.59
2022-11-27T00:54:54.362Z,3.60
2022-11-27T00:57:40.585Z,3.59
2022-11-27T01:00:15.577Z,3.50
2022-11-27T01:03:01.318Z,3.65
2022-11-27T01:05:50.460Z,3.68
2022-11-27T01:08:37.106Z,3.69
2022-11-27T01:11:34.110Z,3.73
2022-11-27T01:14:20.804Z,3.67
2022-11-27T01:17:02.266Z,3.70
2022-11-27T01:19:42.685Z,3.80
2022-11-27T01:22:26.303Z,3.89
2022-11-27T01:25:07.147Z,3.72
2022-11-27T01:27:50.676Z,3.62
2022-11-27T01:30:36.740Z,3.74
2022-11-27T01:33:29.044Z,3.68
2022-11-27T01:36:16.525Z,3.80
2022-11-27T01:39:10.094Z,3.79
2022-11-27T01:41:55.237Z,3.93
2022-11-27T01:44:54.861Z,3.90
2022-11-27T01:48:06.633Z,3.89
2022-11-27T01:50:50.429Z,3.79
2022-11-27T01:53:37.384Z,3.70
2022-11-27T01:56:29.940Z,3.76
2022-11-27T01:59:18.241Z,3.87
2022-11-27T02:01:53.517Z,3.79
2022-11-27T02:04:37.433Z,3.80
2022-11-27T02:07:22.024Z,3.79
2022-11-27T02:10:10.413Z,3.86
2022-11-27T02:13:14.383Z,3.90
2022-11-27T02:16:32.340Z,3.76
2022-11-27T02:19:18.075Z,3.80
2022-11-27T02:22:04.566Z,3.87
2022-11-27T02:25:05.546Z,3.83
2022-11-27T02:28:36.368Z,3.78
2022-11-27T02:31:34.330Z,3.77
2022-11-27T02:34:27.543Z,3.84
2022-11-27T02:37:41.366Z,3.87
2022-11-27T02:40:31.041Z,3.95
2022-11-27T02:43:21.282Z,4.04
2022-11-27T02:46:04.359Z,4.13
2022-11-27T02:48:53.103Z,4.05
2022-11-27T02:51:35.516Z,4.12
2022-11-27T02:54:23.616Z,4.10
2022-11-27T02:57:11.859Z,4.16
2022-11-27T02:59:55.998Z,4.31
2022-11-27T03:02:49.880Z,4.30
2022-11-27T03:05:47.249Z,4.31
2022-11-27T03:08:38.847Z,4.35
2022-11-27T03:11:18.469Z,4.31
2022-11-27T03:14:03.426Z,4.28
2022-11-27T03:16:54.312Z,4.35
2022-11-27T03:19:56.527Z,4.47
2022-11-27T03:22:39.371Z,4.54
2022-11-27T03:25:17.762Z,4.53
2022-11-27T03:28:08.539Z,4.51
2022-11-27T03:30:54.562Z,4.44
2022-11-27T03:33:37.773Z,4.40
2022-11-27T03:36:24.812Z,4.45
2022-11-27T03:39:00.618Z,4.52
2022-11-27T03:42:03.654Z,4.52
2022-11-27T03:45:12.729Z,4.35
2022-11-27T03:48:09.224Z,4.50
2022-11-27T03:50:54.500Z,4.39
2022-11-27T03:54:07.411Z,4.35
2022-11-27T03:56:58.775Z,4.57
2022-11-27T03:59:47.990Z,4.60
2022-11-27T04:02:42.236Z,4.53
2022-11-27T04:05:28.744Z,4.51
2022-11-27T04:08:13.627Z,4.55
2022-11-27T04:11:01.833Z,4.59
2022-11-27T04:13:53.188Z,4.54
2022-11-27T04:16:40.307Z,4.63
2022-11-27T04:19:27.023Z,4.63
2022-11-27T04:22:05.840Z,4.54
2022-11-27T04:24:49.447Z,4.65
2022-11-27T04:27:32.647Z,4.67
2022-11-27T04:30:21.934Z,4.73
2022-11-27T04:33:10.543Z,4.66
2022-11-27T04:35:55.751Z,4.58
2022-11-27T04:38:43.055Z,4.59
2022-11-27T04:41:29.312Z,4.64
2022-11-27T04:44:12.383Z,4.68
2022-11-27T04:46:56.225Z,4.66
2022-11-27T04:49:39.777Z,4.65
2022-11-27T04:52:23.255Z,4.67
2022-11-27T04:55:00.243Z,4.66
2022-11-27T04:57:44.600Z,4.71
2022-11-27T05:00:26.854Z,4.74
2022-11-27T05:03:15.687Z,4.77
2022-11-27T05:06:00.443Z,4.85
2022-11-27T05:08:46.913Z,4.87
2022-11-27T05:11:30.290Z,4.92
2022-11-27T05:14:18.063Z,4.89
2022-11-27T05:17:06.270Z,4.99
2022-11-27T05:19:43.893Z,4.80
2022-11-27T05:22:33.718Z,4.87
2022-11-27T05:25:17.184Z,4.78
2022-11-27T05:27:58.160Z,4.72
2022-11-27T05:30:46.156Z,4.67
2022-11-27T05:33:24.707Z,4.70
2022-11-27T05:36:09.078Z,4.80
2022-11-27T05:38:48.176Z,4.86
2022-11-27T05:41:36.260Z,4.84
2022-11-27T05:44:21.063Z,4.84
2022-11-27T05:47:14.365Z,4.82
2022-11-27T05:49:57.628Z,4.84
2022-11-27T05:52:41.649Z,4.87
2022-11-27T05:55:28.283Z,4.81
2022-11-27T05:58:15.552Z,4.85
2022-11-27T06:00:51.279Z,4.88
2022-11-27T06:03:39.342Z,4.86
2022-11-27T06:06:35.151Z,4.94
2022-11-27T06:09:22.563Z,4.74
2022-11-27T06:12:03.134Z,4.89
2022-11-27T06:14:52.729Z,4.87
2022-11-27T06:17:42.222Z,4.86
2022-11-27T06:20:24.053Z,4.78
2022-11-27T06:23:07.515Z,4.83
2022-11-27T06:25:50.633Z,4.76
2022-11-27T06:28:47.522Z,4.78
2022-11-27T06:31:30.662Z,4.86
2022-11-27T06:34:15.083Z,4.88
2022-11-27T06:36:53.440Z,4.88
2022-11-27T06:39:35.208Z,4.84
2022-11-27T06:42:22.226Z,4.88
2022-11-27T06:45:08.469Z,4.93
2022-11-27T06:47:55.208Z,4.89
2022-11-27T06:50:37.112Z,5.02
2022-11-27T06:53:20.135Z,5.08
2022-11-27T06:56:07.387Z,5.04
2022-11-27T06:58:51.198Z,4.91
2022-11-27T07:01:29.206Z,4.97
2022-11-27T07:04:19.704Z,4.92
2022-11-27T07:07:14.465Z,5.06
2022-11-27T07:10:06.256Z,5.04
2022-11-27T07:12:53.079Z,5.06
2022-11-27T07:15:33.736Z,5.10
2022-11-27T07:18:17.887Z,5.15
2022-11-27T07:21:08.495Z,5.16
2022-11-27T07:23:55.603Z,5.22
2022-11-27T07:26:47.285Z,5.23
2022-11-27T07:29:28.517Z,5.19
2022-11-27T07:32:19.699Z,5.31
2022-11-27T07:35:06.991Z,5.43
2022-11-27T07:37:40.359Z,5.42
2022-11-27T07:40:21.130Z,5.53
2022-11-27T07:43:03.295Z,5.49
2022-11-27T07:45:52.567Z,5.51
2022-11-27T07:48:41.808Z,5.48
2022-11-27T07:51:22.466Z,5.55
2022-11-27T07:54:02.655Z,5.58
2022-11-27T07:56:47.015Z,5.54
2022-11-27T07:59:26.487Z,5.54
2022-11-27T08:02:09.290Z,5.54
2022-11-27T08:04:48.202Z,5.56
2022-11-27T08:07:32.689Z,5.51
2022-11-27T08:10:14.466Z,5.55
2022-11-27T08:13:06.321Z,5.44
2022-11-27T08:15:49.598Z,5.37
2022-11-27T08:18:45.196Z,5.37
2022-11-27T08:21:31.923Z,5.44
2022-11-27T08:24:11.494Z,5.48
2022-11-27T08:26:58.511Z,5.54
2022-11-27T08:29:50.741Z,5.66
2022-11-27T08:32:41.324Z,5.57
2022-11-27T08:35:24.532Z,5.55
2022-11-27T08:38:11.407Z,5.65
2022-11-27T08:40:51.554Z,5.76
2022-11-27T08:43:40.174Z,5.86
2022-11-27T08:49:34.376Z,5.81
2022-11-27T08:52:18.549Z,5.65
2022-11-27T08:55:09.895Z,5.68
2022-11-27T08:58:01.650Z,5.69
2022-11-27T09:00:49.171Z,5.76
2022-11-27T09:03:34.391Z,5.84
2022-11-27T09:06:16.165Z,5.79
2022-11-27T09:08:57.738Z,5.86
2022-11-27T09:11:49.697Z,5.85
2022-11-27T09:14:34.203Z,5.91
2022-11-27T09:17:33.300Z,5.97
2022-11-27T09:20:18.923Z,5.92
2022-11-27T09:23:01.328Z,5.88
2022-11-27T09:25:55.610Z,5.89
2022-11-27T09:28:38.873Z,5.91
2022-11-27T09:31:26.645Z,5.90
2022-11-27T09:34:23.188Z,5.91
2022-11-27T09:37:17.726Z,5.82
2022-11-27T09:40:03.728Z,5.97
2022-11-27T09:43:02.129Z,5.90
2022-11-27T09:46:14.777Z,5.93
2022-11-27T09:48:59.208Z,5.93
2022-11-27T09:52:01.131Z,6.02
2022-11-27T09:55:37.961Z,5.80
2022-11-27T09:58:39.724Z,5.87
2022-11-27T10:01:36.580Z,6.01
2022-11-27T10:04:50.985Z,6.04
2022-11-27T10:08:06.846Z,5.99
2022-11-27T10:11:03.382Z,5.96
2022-11-27T10:14:18.258Z,5.92
2022-11-27T10:17:22.404Z,5.88
2022-11-27T10:20:17.206Z,5.99
2022-11-27T10:23:25.338Z,6.04
2022-11-27T10:26:20.162Z,6.11
2022-11-27T10:29:32.234Z,6.12
2022-11-27T10:32:53.997Z,6.10
2022-11-27T10:35:36.205Z,6.13
2022-11-27T10:38:26.592Z,6.17
2022-11-27T10:45:06.230Z,6.12
2022-11-27T10:47:51.341Z,6.29
2022-11-27T10:50:35.308Z,6.44
2022-11-27T10:53:46.938Z,6.59
2022-11-27T10:57:07.131Z,6.72
2022-11-27T11:00:13.168Z,6.60
2022-11-27T11:02:57.297Z,6.63
2022-11-27T11:09:43.104Z,6.15
2022-11-27T11:12:29.999Z,6.28
2022-11-27T11:15:17.425Z,6.39
2022-11-27T11:18:04.813Z,6.28
2022-11-27T11:21:05.113Z,6.38
2022-11-27T11:24:01.764Z,6.32
2022-11-27T11:26:47.185Z,6.41
2022-11-27T11:30:17.180Z,6.51
2022-11-27T11:33:15.514Z,6.51
2022-11-27T11:36:10.581Z,6.69
2022-11-27T11:38:52.808Z,6.51
2022-11-27T11:41:54.186Z,6.57
2022-11-27T11:44:45.239Z,6.82
2022-11-27T11:47:34.300Z,6.88
2022-11-27T11:50:36.184Z,7.07
2022-11-27T11:53:45.717Z,7.31
2022-11-27T11:56:52.614Z,7.19
2022-11-27T11:59:45.347Z,7.31
2022-11-27T12:02:46.743Z,7.22
2022-11-27T12:06:12.102Z,7.25
2022-11-27T12:09:51.524Z,7.04
2022-11-27T12:13:19.155Z,7.08
2022-11-27T12:16:23.169Z,6.93
2022-11-27T12:19:35.551Z,6.76
2022-11-27T12:22:42.759Z,6.72
2022-11-27T12:25:50.397Z,6.82
2022-11-27T12:28:48.018Z,6.82
2022-11-27T12:31:47.769Z,6.82
2022-11-27T12:34:58.161Z,6.74
2022-11-27T12:37:46.509Z,6.94
2022-11-27T12:41:05.637Z,6.79
2022-11-27T12:43:53.467Z,6.46
2022-11-27T12:47:11.938Z,6.70
2022-11-27T12:50:13.023Z,6.80
2022-11-27T12:53:02.316Z,6.81
2022-11-27T12:55:50.925Z,6.85
2022-11-27T12:58:41.363Z,6.72
2022-11-27T13:01:28.497Z,6.74
2022-11-27T13:04:40.845Z,7.00
2022-11-27T13:07:33.207Z,6.84
2022-11-27T13:10:21.714Z,6.95
2022-11-27T13:13:18.215Z,6.85
2022-11-27T13:16:38.512Z,6.63
2022-11-27T13:19:33.266Z,6.38
2022-11-27T13:22:18.840Z,6.41
2022-11-27T13:24:57.206Z,6.37
2022-11-27T13:27:42.915Z,6.50
2022-11-27T13:30:37.887Z,6.45
2022-11-27T13:33:48.734Z,6.45
2022-11-27T13:36:36.315Z,6.53
2022-11-27T13:39:39.344Z,6.41
2022-11-27T13:42:26.350Z,6.40
2022-11-27T13:45:13.187Z,6.33
2022-11-27T13:48:02.832Z,6.43
2022-11-27T13:50:53.834Z,6.46
2022-11-27T13:53:44.123Z,6.12
2022-11-27T13:56:33.892Z,6.38
2022-11-27T13:59:39.189Z,6.39
2022-11-27T14:02:31.865Z,6.40
2022-11-27T14:05:18.442Z,6.37
2022-11-27T14:08:04.367Z,6.34
2022-11-27T14:11:04.645Z,6.29
2022-11-27T14:14:07.115Z,6.34
2022-11-27T14:16:57.947Z,6.32
2022-11-27T14:19:54.156Z,6.32
2022-11-27T14:23:22.159Z,6.39
2022-11-27T14:26:31.477Z,6.39
2022-11-27T14:29:24.174Z,6.34
2022-11-27T14:32:38.236Z,6.41
2022-11-27T14:35:34.126Z,6.48
2022-11-27T14:38:21.374Z,6.39
2022-11-27T14:41:26.422Z,6.26
2022-11-27T14:44:23.352Z,6.14
2022-11-27T14:47:10.107Z,6.13
2022-11-27T14:49:55.799Z,6.15
2022-11-27T14:52:37.661Z,6.07
2022-11-27T14:55:34.592Z,6.03
2022-11-27T14:58:25.223Z,5.94
2022-11-27T15:01:14.330Z,5.97
2022-11-27T15:04:06.119Z,5.99
2022-11-27T15:07:07.785Z,5.97
2022-11-27T15:09:51.092Z,6.06
2022-11-27T15:12:54.651Z,6.04
2022-11-27T15:15:45.804Z,6.01
2022-11-27T15:18:39.027Z,5.95
2022-11-27T15:21:31.901Z,5.98
2022-11-27T15:24:37.323Z,6.01
2022-11-27T15:27:26.912Z,6.00
2022-11-27T15:30:20.472Z,5.94
2022-11-27T15:33:10.236Z,5.75
2022-11-27T15:36:20.007Z,5.92
2022-11-27T15:39:30.160Z,5.83
2022-11-27T15:42:17.697Z,5.90
2022-11-27T15:45:05.932Z,5.90
2022-11-27T15:47:53.999Z,5.96
2022-11-27T15:50:59.927Z,5.93
2022-11-27T15:53:38.044Z,5.86
2022-11-27T15:56:24.141Z,5.89
2022-11-27T15:59:11.168Z,5.86
2022-11-27T16:01:54.438Z,5.76
2022-11-27T16:04:41.949Z,5.90
2022-11-27T16:07:30.907Z,5.86
2022-11-27T16:10:18.322Z,6.05
2022-11-27T16:13:01.819Z,6.03
2022-11-27T16:15:41.184Z,5.98
2022-11-27T16:21:36.052Z,5.83
2022-11-27T16:24:20.213Z,5.88
2022-11-27T16:27:01.703Z,5.70
2022-11-27T16:29:45.346Z,5.77
2022-11-27T16:32:43.972Z,5.80
2022-11-27T16:35:34.903Z,5.75
2022-11-27T16:38:26.078Z,5.80
2022-11-27T16:41:17.150Z,5.80
2022-11-27T16:44:03.666Z,5.68
2022-11-27T16:46:54.154Z,5.83
2022-11-27T16:49:34.274Z,5.69
2022-11-27T16:52:18.487Z,5.67
2022-11-27T16:55:13.643Z,5.67
2022-11-27T16:58:03.663Z,5.70
2022-11-27T17:00:44.909Z,5.66
2022-11-27T17:03:30.345Z,5.50
2022-11-27T17:06:10.666Z,5.65
2022-11-27T17:08:53.931Z,5.55
2022-11-27T17:11:43.189Z,5.71
2022-11-27T17:14:52.511Z,5.66
2022-11-27T17:17:36.801Z,5.72
2022-11-27T17:20:32.258Z,5.60
2022-11-27T17:23:17.958Z,5.63
2022-11-27T17:26:12.161Z,5.44
2022-11-27T17:29:03.953Z,5.56
2022-11-27T17:31:57.242Z,5.60
2022-11-27T17:34:50.891Z,5.64
2022-11-27T17:37:42.094Z,5.59
2022-11-27T17:40:33.687Z,5.66
2022-11-27T17:43:15.168Z,5.57
2022-11-27T17:46:00.626Z,5.64
2022-11-27T17:48:49.528Z,5.65
2022-11-27T17:51:41.876Z,5.68
2022-11-27T17:54:35.524Z,5.38
2022-11-27T17:57:24.196Z,5.35
2022-11-27T18:00:18.791Z,5.37
2022-11-27T18:03:07.225Z,5.50
2022-11-27T18:05:59.872Z,5.30
2022-11-27T18:08:43.359Z,5.15
2022-11-27T18:11:25.664Z,5.20
2022-11-27T18:14:09.764Z,5.18
2022-11-27T18:17:04.349Z,5.22
2022-11-27T18:19:47.214Z,5.36
2022-11-27T18:22:31.600Z,5.33
2022-11-27T18:25:14.916Z,5.16
2022-11-27T18:28:02.302Z,5.13
2022-11-27T18:30:56.424Z,5.09
2022-11-27T18:33:43.592Z,5.23
2022-11-27T18:36:28.435Z,5.34
2022-11-27T18:39:27.397Z,5.27
2022-11-27T18:42:21.149Z,5.33
2022-11-27T18:45:25.245Z,5.35
2022-11-27T18:48:13.970Z,5.33
2022-11-27T18:51:13.542Z,5.49
2022-11-27T18:53:56.583Z,5.39
2022-11-27T18:56:46.222Z,5.33
2022-11-27T18:59:32.483Z,5.37
2022-11-27T19:02:16.756Z,5.45
2022-11-27T19:05:08.067Z,5.10
2022-11-27T19:07:55.183Z,5.20
2022-11-27T19:10:33.421Z,5.13
2022-11-27T19:13:22.989Z,5.25
2022-11-27T19:16:09.949Z,5.04
2022-11-27T19:19:01.387Z,5.24
2022-11-27T19:21:37.132Z,5.09
2022-11-27T19:24:21.089Z,5.11
2022-11-27T19:27:24.281Z,5.18
2022-11-27T19:30:10.196Z,5.22
2022-11-27T19:33:04.173Z,5.29
2022-11-27T19:35:50.399Z,5.30
2022-11-27T19:38:43.602Z,5.47
2022-11-27T19:41:27.957Z,5.42
2022-11-27T19:44:16.273Z,5.41
2022-11-27T19:47:06.179Z,5.29
2022-11-27T19:49:56.484Z,5.33
2022-11-27T19:52:37.250Z,5.37
2022-11-27T19:55:21.817Z,5.43
2022-11-27T19:58:06.101Z,5.27
2022-11-27T20:01:05.838Z,5.27
2022-11-27T20:03:54.451Z,5.35
2022-11-27T20:06:36.506Z,5.34
2022-11-27T20:09:29.375Z,5.43
2022-11-27T20:12:15.669Z,5.29
2022-11-27T20:15:01.797Z,5.11
2022-11-27T20:17:53.586Z,5.15
2022-11-27T20:20:42.609Z,5.25
2022-11-27T20:23:26.175Z,5.29
2022-11-27T20:26:15.467Z,5.15
2022-11-27T20:28:54.356Z,5.18
2022-11-27T20:31:45.355Z,5.19
2022-11-27T20:34:26.739Z,5.29
2022-11-27T20:37:15.576Z,5.41
2022-11-27T20:39:57.197Z,5.12
2022-11-27T20:42:48.056Z,5.34
2022-11-27T20:45:31.370Z,5.19
2022-11-27T20:48:10.158Z,5.14
2022-11-27T20:51:07.265Z,5.14
2022-11-27T20:53:56.199Z,5.23
2022-11-27T20:56:38.060Z,5.25
2022-11-27T20:59:28.916Z,5.14
2022-11-27T21:02:16.252Z,5.08
2022-11-27T21:05:20.709Z,5.14
2022-11-27T21:08:09.482Z,5.03
2022-11-27T21:10:56.179Z,5.10
2022-11-27T21:13:43.369Z,5.15
2022-11-27T21:16:28.252Z,5.21
2022-11-27T21:19:30.826Z,5.05
2022-11-27T21:22:14.054Z,5.26
2022-11-27T21:25:09.186Z,5.27
2022-11-27T21:28:05.172Z,5.21
2022-11-27T21:30:58.698Z,5.24
2022-11-27T21:33:41.179Z,5.21
2022-11-27T21:36:33.093Z,5.20
2022-11-27T21:39:25.555Z,5.24
2022-11-27T21:42:06.598Z,5.02
2022-11-27T21:44:56.893Z,5.18
2022-11-27T21:47:52.488Z,5.11
2022-11-27T21:50:39.150Z,5.25
2022-11-27T21:53:28.436Z,5.19
2022-11-27T21:56:24.397Z,5.36
2022-11-27T21:59:05.586Z,5.32
2022-11-27T22:01:58.694Z,5.35
2022-11-27T22:04:49.173Z,5.36
2022-11-27T22:07:41.029Z,5.29
2022-11-27T22:10:29.221Z,5.25
2022-11-27T22:13:25.141Z,5.12
2022-11-27T22:16:15.296Z,5.24
2022-11-27T22:19:04.440Z,5.29
2022-11-27T22:21:49.217Z,5.30
2022-11-27T22:24:28.034Z,5.33
2022-11-27T22:27:08.844Z,5.30
2022-11-27T22:29:54.898Z,5.22
2022-11-27T22:32:40.121Z,5.33
2022-11-27T22:35:34.728Z,5.15
2022-11-27T22:38:14.763Z,5.32
2022-11-27T22:41:04.695Z,5.39
2022-11-27T22:43:44.409Z,5.34
2022-11-27T22:46:27.798Z,5.23
2022-11-27T22:49:20.179Z,5.26
2022-11-27T22:52:07.170Z,5.26
2022-11-27T22:54:53.526Z,5.19
2022-11-27T22:57:39.647Z,5.24
2022-11-27T23:00:23.657Z,5.30
2022-11-27T23:03:04.415Z,5.22
2022-11-27T23:05:47.221Z,5.12
2022-11-27T23:08:37.752Z,5.05
2022-11-27T23:11:29.085Z,5.13
2022-11-27T23:14:17.348Z,5.16
2022-11-27T23:17:00.313Z,5.07
2022-11-27T23:19:43.970Z,5.17
2022-11-27T23:22:27.228Z,5.16
2022-11-27T23:25:14.164Z,5.07
2022-11-27T23:27:53.126Z,4.98
2022-11-27T23:30:37.007Z,5.04
2022-11-27T23:33:20.786Z,4.96
2022-11-27T23:36:10.089Z,5.00
2022-11-27T23:38:58.228Z,4.99
2022-11-27T23:41:40.140Z,4.89
2022-11-27T23:44:33.939Z,5.02
2022-11-27T23:47:12.925Z,4.86
2022-11-27T23:50:02.098Z,4.86
2022-11-27T23:52:45.979Z,4.73
2022-11-27T23:55:40.446Z,4.79
2022-11-27T23:58:34.647Z,4.86
